sensor_id;sensor_type;location;lat;lon;timestamp;pressure;altitude;pressure_sealevel;temperature;humidity
47815;BME280;33579;50.058;18.130;2022-09-09T00:00:59;98916.44;;;18.11;100.00
47815;BME280;33579;50.058;18.130;2022-09-09T00:02:15;98918.94;;;17.97;100.00
47815;BME280;33579;50.058;18.130;2022-09-09T00:03:25;98915.00;;;17.93;100.00
47815;BME280;33579;50.058;18.130;2022-09-09T00:04:30;98917.56;;;18.02;100.00
47815;BME280;33579;50.058;18.130;2022-09-09T00:05:48;98924.69;;;18.01;100.00
47815;BME280;33579;50.058;18.130;2022-09-09T00:07:05;98923.97;;;18.07;100.00
47815;BME280;33579;50.058;18.130;2022-09-09T00:08:16;98922.59;;;18.11;100.00
47815;BME280;33579;50.058;18.130;2022-09-09T00:09:22;98919.53;;;18.15;100.00
47815;BME280;33579;50.058;18.130;2022-09-09T00:10:38;98916.97;;;18.21;100.00
47815;BME280;33579;50.058;18.130;2022-09-09T00:13:11;98914.47;;;18.20;100.00
47815;BME280;33579;50.058;18.130;2022-09-09T00:14:23;98918.41;;;18.24;100.00
47815;BME280;33579;50.058;18.130;2022-09-09T00:15:40;98915.56;;;18.25;100.00
47815;BME280;33579;50.058;18.130;2022-09-09T00:16:47;98919.25;;;18.24;100.00
47815;BME280;33579;50.058;18.130;2022-09-09T00:17:56;98920.25;;;18.23;100.00
47815;BME280;33579;50.058;18.130;2022-09-09T00:19:06;98924.94;;;18.21;100.00
47815;BME280;33579;50.058;18.130;2022-09-09T00:20:16;98918.22;;;18.25;100.00
47815;BME280;33579;50.058;18.130;2022-09-09T00:21:21;98919.09;;;18.33;100.00
47815;BME280;33579;50.058;18.130;2022-09-09T00:22:28;98921.91;;;18.24;100.00
47815;BME280;33579;50.058;18.130;2022-09-09T00:23:34;98923.41;;;18.12;100.00
47815;BME280;33579;50.058;18.130;2022-09-09T00:24:43;98917.47;;;18.10;100.00
47815;BME280;33579;50.058;18.130;2022-09-09T00:27:10;98915.44;;;17.97;100.00
47815;BME280;33579;50.058;18.130;2022-09-09T00:28:22;98910.22;;;18.04;100.00
47815;BME280;33579;50.058;18.130;2022-09-09T00:29:51;98913.91;;;18.03;100.00
47815;BME280;33579;50.058;18.130;2022-09-09T00:30:55;98914.53;;;18.05;100.00
47815;BME280;33579;50.058;18.130;2022-09-09T00:32:20;98921.72;;;18.04;100.00
47815;BME280;33579;50.058;18.130;2022-09-09T00:33:23;98913.63;;;17.97;100.00
47815;BME280;33579;50.058;18.130;2022-09-09T00:34:26;98919.38;;;18.01;100.00
47815;BME280;33579;50.058;18.130;2022-09-09T00:35:35;98919.84;;;18.05;100.00
47815;BME280;33579;50.058;18.130;2022-09-09T00:36:40;98919.59;;;18.00;100.00
47815;BME280;33579;50.058;18.130;2022-09-09T00:37:43;98920.31;;;17.93;100.00
47815;BME280;33579;50.058;18.130;2022-09-09T00:38:49;98919.38;;;18.01;100.00
47815;BME280;33579;50.058;18.130;2022-09-09T00:39:55;98925.91;;;17.98;100.00
47815;BME280;33579;50.058;18.130;2022-09-09T00:41:05;98917.31;;;17.96;100.00
47815;BME280;33579;50.058;18.130;2022-09-09T00:42:24;98918.50;;;17.94;100.00
47815;BME280;33579;50.058;18.130;2022-09-09T00:43:32;98922.63;;;17.96;100.00
47815;BME280;33579;50.058;18.130;2022-09-09T00:44:37;98925.53;;;18.02;100.00
47815;BME280;33579;50.058;18.130;2022-09-09T00:47:04;98924.38;;;17.89;100.00
47815;BME280;33579;50.058;18.130;2022-09-09T00:48:10;98916.03;;;17.77;100.00
47815;BME280;33579;50.058;18.130;2022-09-09T00:49:15;98927.44;;;17.71;100.00
47815;BME280;33579;50.058;18.130;2022-09-09T00:50:38;98920.03;;;17.66;100.00
47815;BME280;33579;50.058;18.130;2022-09-09T00:54:44;98921.59;;;17.46;100.00
47815;BME280;33579;50.058;18.130;2022-09-09T00:55:56;98923.38;;;17.38;100.00
47815;BME280;33579;50.058;18.130;2022-09-09T00:57:22;98921.53;;;17.39;100.00
47815;BME280;33579;50.058;18.130;2022-09-09T00:58:26;98922.00;;;17.42;100.00
47815;BME280;33579;50.058;18.130;2022-09-09T00:59:34;98928.16;;;17.43;100.00
47815;BME280;33579;50.058;18.130;2022-09-09T01:00:44;98928.97;;;17.44;100.00
47815;BME280;33579;50.058;18.130;2022-09-09T01:01:46;98926.03;;;17.38;100.00
47815;BME280;33579;50.058;18.130;2022-09-09T01:03:13;98930.81;;;17.43;100.00
47815;BME280;33579;50.058;18.130;2022-09-09T01:04:26;98929.41;;;17.47;100.00
47815;BME280;33579;50.058;18.130;2022-09-09T01:05:46;98928.22;;;17.50;100.00
47815;BME280;33579;50.058;18.130;2022-09-09T01:06:57;98931.78;;;17.57;100.00
47815;BME280;33579;50.058;18.130;2022-09-09T01:08:07;98937.56;;;17.61;100.00
47815;BME280;33579;50.058;18.130;2022-09-09T01:09:26;98930.34;;;17.54;100.00
47815;BME280;33579;50.058;18.130;2022-09-09T01:10:49;98935.28;;;17.58;100.00
47815;BME280;33579;50.058;18.130;2022-09-09T01:12:24;98942.88;;;17.61;100.00
47815;BME280;33579;50.058;18.130;2022-09-09T01:13:30;98941.41;;;17.58;100.00
47815;BME280;33579;50.058;18.130;2022-09-09T01:15:39;98952.16;;;17.50;100.00
47815;BME280;33579;50.058;18.130;2022-09-09T01:16:42;98945.75;;;17.44;100.00
47815;BME280;33579;50.058;18.130;2022-09-09T01:18:08;98940.22;;;17.46;100.00
47815;BME280;33579;50.058;18.130;2022-09-09T01:19:23;98946.28;;;17.54;100.00
47815;BME280;33579;50.058;18.130;2022-09-09T01:20:36;98948.28;;;17.52;100.00
47815;BME280;33579;50.058;18.130;2022-09-09T01:21:52;98955.09;;;17.55;100.00
47815;BME280;33579;50.058;18.130;2022-09-09T01:23:23;98948.75;;;17.56;100.00
47815;BME280;33579;50.058;18.130;2022-09-09T01:26:34;98959.00;;;17.59;100.00
47815;BME280;33579;50.058;18.130;2022-09-09T01:27:42;98953.34;;;17.62;100.00
47815;BME280;33579;50.058;18.130;2022-09-09T01:28:49;98951.78;;;17.68;100.00
47815;BME280;33579;50.058;18.130;2022-09-09T01:29:51;98955.00;;;17.63;100.00
47815;BME280;33579;50.058;18.130;2022-09-09T01:30:55;98951.94;;;17.66;100.00
47815;BME280;33579;50.058;18.130;2022-09-09T01:32:02;98959.13;;;17.66;100.00
47815;BME280;33579;50.058;18.130;2022-09-09T01:33:04;98953.50;;;17.61;100.00
47815;BME280;33579;50.058;18.130;2022-09-09T01:34:14;98953.34;;;17.62;100.00
47815;BME280;33579;50.058;18.130;2022-09-09T01:36:43;98952.13;;;17.65;100.00
47815;BME280;33579;50.058;18.130;2022-09-09T01:37:47;98951.13;;;17.66;100.00
47815;BME280;33579;50.058;18.130;2022-09-09T01:38:49;98961.56;;;17.67;100.00
47815;BME280;33579;50.058;18.130;2022-09-09T01:39:52;98960.09;;;17.65;100.00
47815;BME280;33579;50.058;18.130;2022-09-09T01:40:54;98961.50;;;17.61;100.00
47815;BME280;33579;50.058;18.130;2022-09-09T01:42:03;98961.88;;;17.58;100.00
47815;BME280;33579;50.058;18.130;2022-09-09T01:43:06;98961.59;;;17.52;100.00
47815;BME280;33579;50.058;18.130;2022-09-09T01:44:09;98958.59;;;17.55;100.00
47815;BME280;33579;50.058;18.130;2022-09-09T01:45:13;98960.41;;;17.55;100.00
47815;BME280;33579;50.058;18.130;2022-09-09T01:46:14;98961.03;;;17.57;100.00
47815;BME280;33579;50.058;18.130;2022-09-09T01:47:16;98959.00;;;17.59;100.00
47815;BME280;33579;50.058;18.130;2022-09-09T01:48:32;98954.53;;;17.60;100.00
47815;BME280;33579;50.058;18.130;2022-09-09T01:49:40;98959.00;;;17.59;100.00
47815;BME280;33579;50.058;18.130;2022-09-09T01:50:51;98958.13;;;17.52;100.00
47815;BME280;33579;50.058;18.130;2022-09-09T01:51:55;98960.59;;;17.53;100.00
47815;BME280;33579;50.058;18.130;2022-09-09T01:53:07;98969.31;;;17.47;100.00
47815;BME280;33579;50.058;18.130;2022-09-09T01:54:10;98960.50;;;17.47;100.00
47815;BME280;33579;50.058;18.130;2022-09-09T01:55:12;98975.38;;;17.41;100.00
47815;BME280;33579;50.058;18.130;2022-09-09T02:00:13;98972.22;;;17.52;100.00
47815;BME280;33579;50.058;18.130;2022-09-09T02:03:00;98977.47;;;17.61;100.00
47815;BME280;33579;50.058;18.130;2022-09-09T02:04:23;98974.53;;;17.55;100.00
47815;BME280;33579;50.058;18.130;2022-09-09T02:06:34;98976.66;;;17.60;100.00
47815;BME280;33579;50.058;18.130;2022-09-09T02:07:49;98973.53;;;17.56;100.00
47815;BME280;33579;50.058;18.130;2022-09-09T02:09:10;98977.47;;;17.61;100.00
47815;BME280;33579;50.058;18.130;2022-09-09T02:10:19;98977.06;;;17.64;100.00
47815;BME280;33579;50.058;18.130;2022-09-09T02:11:30;98980.13;;;17.61;100.00
47815;BME280;33579;50.058;18.130;2022-09-09T02:12:52;98974.88;;;17.52;100.00
47815;BME280;33579;50.058;18.130;2022-09-09T02:14:02;98979.84;;;17.55;100.00
47815;BME280;33579;50.058;18.130;2022-09-09T02:15:09;98980.88;;;17.54;100.00
47815;BME280;33579;50.058;18.130;2022-09-09T02:16:40;98988.19;;;17.52;100.00
47815;BME280;33579;50.058;18.130;2022-09-09T02:17:46;98975.72;;;17.53;100.00
47815;BME280;33579;50.058;18.130;2022-09-09T02:19:07;98985.53;;;17.52;100.00
47815;BME280;33579;50.058;18.130;2022-09-09T02:20:19;98980.13;;;17.46;100.00
47815;BME280;33579;50.058;18.130;2022-09-09T02:21:30;98981.41;;;17.35;100.00
47815;BME280;33579;50.058;18.130;2022-09-09T02:22:33;98983.06;;;17.36;100.00
47815;BME280;33579;50.058;18.130;2022-09-09T02:23:38;98982.69;;;17.39;100.00
47815;BME280;33579;50.058;18.130;2022-09-09T02:24:43;98984.53;;;17.38;100.00
47815;BME280;33579;50.058;18.130;2022-09-09T02:25:57;98978.84;;;17.41;100.00
47815;BME280;33579;50.058;18.130;2022-09-09T02:27:02;98988.09;;;17.46;100.00
47815;BME280;33579;50.058;18.130;2022-09-09T02:28:07;98975.91;;;17.51;100.00
47815;BME280;33579;50.058;18.130;2022-09-09T02:29:14;98978.00;;;17.56;100.00
47815;BME280;33579;50.058;18.130;2022-09-09T02:30:18;98976.19;;;17.56;100.00
47815;BME280;33579;50.058;18.130;2022-09-09T02:31:25;98982.94;;;17.59;100.00
47815;BME280;33579;50.058;18.130;2022-09-09T02:32:35;98979.22;;;17.53;100.00
47815;BME280;33579;50.058;18.130;2022-09-09T02:33:44;98980.88;;;17.54;100.00
47815;BME280;33579;50.058;18.130;2022-09-09T02:34:56;98982.31;;;17.57;100.00
47815;BME280;33579;50.058;18.130;2022-09-09T02:35:59;98983.78;;;17.60;100.00
47815;BME280;33579;50.058;18.130;2022-09-09T02:37:04;98981.13;;;17.60;100.00
47815;BME280;33579;50.058;18.130;2022-09-09T02:38:12;98983.63;;;17.61;100.00
47815;BME280;33579;50.058;18.130;2022-09-09T02:39:19;98977.84;;;17.58;100.00
47815;BME280;33579;50.058;18.130;2022-09-09T02:40:21;98980.97;;;17.61;100.00
47815;BME280;33579;50.058;18.130;2022-09-09T02:41:33;98984.16;;;17.56;100.00
47815;BME280;33579;50.058;18.130;2022-09-09T02:42:46;98987.53;;;17.50;100.00
47815;BME280;33579;50.058;18.130;2022-09-09T02:43:48;98986.66;;;17.43;100.00
47815;BME280;33579;50.058;18.130;2022-09-09T02:44:50;98989.66;;;17.40;100.00
47815;BME280;33579;50.058;18.130;2022-09-09T02:46:02;98982.34;;;17.42;100.00
47815;BME280;33579;50.058;18.130;2022-09-09T02:47:29;98980.88;;;17.39;100.00
47815;BME280;33579;50.058;18.130;2022-09-09T02:48:45;98990.31;;;17.42;100.00
47815;BME280;33579;50.058;18.130;2022-09-09T02:53:46;98980.56;;;17.34;100.00
47815;BME280;33579;50.058;18.130;2022-09-09T02:54:49;98985.47;;;17.31;100.00
47815;BME280;33579;50.058;18.130;2022-09-09T02:56:29;98986.91;;;17.33;100.00
47815;BME280;33579;50.058;18.130;2022-09-09T02:57:33;98989.56;;;17.33;100.00
47815;BME280;33579;50.058;18.130;2022-09-09T02:58:36;99000.41;;;17.32;100.00
47815;BME280;33579;50.058;18.130;2022-09-09T02:59:40;98994.44;;;17.30;100.00
47815;BME280;33579;50.058;18.130;2022-09-09T03:00:45;98998.09;;;17.28;100.00
47815;BME280;33579;50.058;18.130;2022-09-09T03:01:47;98994.16;;;17.24;100.00
47815;BME280;33579;50.058;18.130;2022-09-09T03:02:49;99005.31;;;17.20;100.00
47815;BME280;33579;50.058;18.130;2022-09-09T03:03:50;99006.22;;;17.12;100.00
47815;BME280;33579;50.058;18.130;2022-09-09T03:04:52;99004.75;;;17.09;100.00
47815;BME280;33579;50.058;18.130;2022-09-09T03:05:54;99004.09;;;17.07;100.00
47815;BME280;33579;50.058;18.130;2022-09-09T03:06:55;99000.34;;;17.02;100.00
47815;BME280;33579;50.058;18.130;2022-09-09T03:07:58;99004.31;;;17.06;100.00
47815;BME280;33579;50.058;18.130;2022-09-09T03:08:59;98995.50;;;17.05;100.00
47815;BME280;33579;50.058;18.130;2022-09-09T03:10:02;98998.16;;;17.05;100.00
47815;BME280;33579;50.058;18.130;2022-09-09T03:11:04;98998.91;;;17.14;100.00
47815;BME280;33579;50.058;18.130;2022-09-09T03:12:09;99003.09;;;17.08;100.00
47815;BME280;33579;50.058;18.130;2022-09-09T03:13:10;98993.72;;;16.97;100.00
47815;BME280;33579;50.058;18.130;2022-09-09T03:14:13;99013.31;;;16.96;100.00
47815;BME280;33579;50.058;18.130;2022-09-09T03:15:15;99005.72;;;16.93;100.00
47815;BME280;33579;50.058;18.130;2022-09-09T03:16:17;99006.06;;;16.90;100.00
47815;BME280;33579;50.058;18.130;2022-09-09T03:17:22;99007.91;;;16.90;100.00
47815;BME280;33579;50.058;18.130;2022-09-09T03:18:27;99005.03;;;16.91;100.00
47815;BME280;33579;50.058;18.130;2022-09-09T03:19:29;99005.88;;;16.92;100.00
47815;BME280;33579;50.058;18.130;2022-09-09T03:20:31;99018.63;;;16.96;100.00
47815;BME280;33579;50.058;18.130;2022-09-09T03:21:32;99014.63;;;17.00;100.00
47815;BME280;33579;50.058;18.130;2022-09-09T03:22:34;99019.59;;;17.04;100.00
47815;BME280;33579;50.058;18.130;2022-09-09T03:23:36;99014.47;;;17.02;100.00
47815;BME280;33579;50.058;18.130;2022-09-09T03:24:38;99018.59;;;17.05;100.00
47815;BME280;33579;50.058;18.130;2022-09-09T03:25:46;99015.09;;;17.04;100.00
47815;BME280;33579;50.058;18.130;2022-09-09T03:26:48;99018.34;;;16.91;100.00
47815;BME280;33579;50.058;18.130;2022-09-09T03:27:53;99019.59;;;16.80;100.00
47815;BME280;33579;50.058;18.130;2022-09-09T03:28:56;99020.78;;;16.78;100.00
47815;BME280;33579;50.058;18.130;2022-09-09T03:29:58;99018.00;;;16.71;100.00
47815;BME280;33579;50.058;18.130;2022-09-09T03:31:04;99016.25;;;16.63;100.00
47815;BME280;33579;50.058;18.130;2022-09-09T03:32:12;99017.44;;;16.61;100.00
47815;BME280;33579;50.058;18.130;2022-09-09T03:33:14;99024.31;;;16.70;100.00
47815;BME280;33579;50.058;18.130;2022-09-09T03:34:15;99018.78;;;16.80;100.00
47815;BME280;33579;50.058;18.130;2022-09-09T03:35:17;99026.75;;;16.80;100.00
47815;BME280;33579;50.058;18.130;2022-09-09T03:36:19;99025.06;;;16.64;100.00
47815;BME280;33579;50.058;18.130;2022-09-09T03:37:20;99018.53;;;16.66;100.00
47815;BME280;33579;50.058;18.130;2022-09-09T03:38:24;99022.50;;;16.70;100.00
47815;BME280;33579;50.058;18.130;2022-09-09T03:39:25;99019.00;;;16.70;100.00
47815;BME280;33579;50.058;18.130;2022-09-09T03:40:27;99021.03;;;16.68;100.00
47815;BME280;33579;50.058;18.130;2022-09-09T03:41:29;99018.53;;;16.66;100.00
47815;BME280;33579;50.058;18.130;2022-09-09T03:42:30;99021.56;;;16.63;100.00
47815;BME280;33579;50.058;18.130;2022-09-09T03:43:34;99026.38;;;16.60;100.00
47815;BME280;33579;50.058;18.130;2022-09-09T03:44:35;99028.41;;;16.57;100.00
47815;BME280;33579;50.058;18.130;2022-09-09T03:45:37;99026.94;;;16.55;100.00
47815;BME280;33579;50.058;18.130;2022-09-09T03:46:38;99024.56;;;16.60;100.00
47815;BME280;33579;50.058;18.130;2022-09-09T03:47:40;99028.72;;;16.63;100.00
47815;BME280;33579;50.058;18.130;2022-09-09T03:48:42;99029.03;;;16.60;100.00
47815;BME280;33579;50.058;18.130;2022-09-09T03:49:43;99033.38;;;16.61;100.00
47815;BME280;33579;50.058;18.130;2022-09-09T03:50:46;99034.34;;;16.60;100.00
47815;BME280;33579;50.058;18.130;2022-09-09T03:51:48;99030.53;;;16.62;100.00
47815;BME280;33579;50.058;18.130;2022-09-09T03:52:49;99024.41;;;16.62;100.00
47815;BME280;33579;50.058;18.130;2022-09-09T03:53:55;99030.53;;;16.62;100.00
47815;BME280;33579;50.058;18.130;2022-09-09T03:54:56;99023.72;;;16.60;100.00
47815;BME280;33579;50.058;18.130;2022-09-09T03:55:58;99032.00;;;16.65;100.00
47815;BME280;33579;50.058;18.130;2022-09-09T03:57:01;99025.53;;;16.67;100.00
47815;BME280;33579;50.058;18.130;2022-09-09T03:58:03;99023.84;;;16.66;100.00
47815;BME280;33579;50.058;18.130;2022-09-09T03:59:04;99029.84;;;16.68;100.00
47815;BME280;33579;50.058;18.130;2022-09-09T04:00:07;99034.94;;;16.70;100.00
47815;BME280;33579;50.058;18.130;2022-09-09T04:01:23;99029.84;;;16.68;100.00
47815;BME280;33579;50.058;18.130;2022-09-09T04:02:25;99035.66;;;16.64;100.00
47815;BME280;33579;50.058;18.130;2022-09-09T04:03:27;99030.63;;;16.69;100.00
47815;BME280;33579;50.058;18.130;2022-09-09T04:04:29;99037.56;;;16.78;100.00
47815;BME280;33579;50.058;18.130;2022-09-09T04:05:31;99029.63;;;16.70;100.00
47815;BME280;33579;50.058;18.130;2022-09-09T04:06:33;99034.13;;;16.69;100.00
47815;BME280;33579;50.058;18.130;2022-09-09T04:07:34;99030.03;;;16.58;100.00
47815;BME280;33579;50.058;18.130;2022-09-09T04:08:36;99028.50;;;16.41;100.00
47815;BME280;33579;50.058;18.130;2022-09-09T04:09:38;99021.72;;;16.38;100.00
47815;BME280;33579;50.058;18.130;2022-09-09T04:10:39;99027.34;;;16.43;100.00
47815;BME280;33579;50.058;18.130;2022-09-09T04:11:41;99015.19;;;16.49;100.00
47815;BME280;33579;50.058;18.130;2022-09-09T04:12:42;99017.50;;;16.52;100.00
47815;BME280;33579;50.058;18.130;2022-09-09T04:13:49;99027.28;;;16.52;100.00
47815;BME280;33579;50.058;18.130;2022-09-09T04:14:52;99022.97;;;16.51;100.00
47815;BME280;33579;50.058;18.130;2022-09-09T04:15:56;99031.78;;;16.51;100.00
47815;BME280;33579;50.058;18.130;2022-09-09T04:16:58;99019.31;;;16.52;100.00
47815;BME280;33579;50.058;18.130;2022-09-09T04:18:00;99023.59;;;16.53;100.00
47815;BME280;33579;50.058;18.130;2022-09-09T04:19:03;99026.94;;;16.55;100.00
47815;BME280;33579;50.058;18.130;2022-09-09T04:20:05;99026.94;;;16.55;100.00
47815;BME280;33579;50.058;18.130;2022-09-09T04:21:07;99025.09;;;16.55;100.00
47815;BME280;33579;50.058;18.130;2022-09-09T04:22:09;99026.94;;;16.55;100.00
47815;BME280;33579;50.058;18.130;2022-09-09T04:23:11;99024.09;;;16.56;100.00
47815;BME280;33579;50.058;18.130;2022-09-09T04:24:12;99024.44;;;16.53;100.00
47815;BME280;33579;50.058;18.130;2022-09-09T04:25:14;99026.78;;;16.48;100.00
47815;BME280;33579;50.058;18.130;2022-09-09T04:26:16;99027.34;;;16.43;100.00
47815;BME280;33579;50.058;18.130;2022-09-09T04:27:18;99024.69;;;16.43;100.00
47815;BME280;33579;50.058;18.130;2022-09-09T04:28:23;99029.75;;;16.53;100.00
47815;BME280;33579;50.058;18.130;2022-09-09T04:29:25;99028.06;;;16.61;100.00
47815;BME280;33579;50.058;18.130;2022-09-09T04:30:26;99029.16;;;16.66;100.00
47815;BME280;33579;50.058;18.130;2022-09-09T04:31:28;99033.13;;;16.70;100.00
47815;BME280;33579;50.058;18.130;2022-09-09T04:32:32;99030.47;;;16.70;100.00
47815;BME280;33579;50.058;18.130;2022-09-09T04:33:34;99030.84;;;16.67;100.00
47815;BME280;33579;50.058;18.130;2022-09-09T04:34:40;99036.47;;;16.64;100.00
47815;BME280;33579;50.058;18.130;2022-09-09T04:35:48;99045.94;;;16.67;100.00
47815;BME280;33579;50.058;18.130;2022-09-09T04:36:51;99042.78;;;16.63;100.00
47815;BME280;33579;50.058;18.130;2022-09-09T04:37:53;99041.78;;;16.64;100.00
47815;BME280;33579;50.058;18.130;2022-09-09T04:38:55;99047.75;;;16.66;100.00
47815;BME280;33579;50.058;18.130;2022-09-09T04:39:56;99040.78;;;16.65;100.00
47815;BME280;33579;50.058;18.130;2022-09-09T04:40:58;99035.56;;;16.57;100.00
47815;BME280;33579;50.058;18.130;2022-09-09T04:41:59;99039.03;;;16.57;100.00
47815;BME280;33579;50.058;18.130;2022-09-09T04:43:02;99039.50;;;16.61;100.00
47815;BME280;33579;50.058;18.130;2022-09-09T04:44:04;99042.50;;;16.58;100.00
47815;BME280;33579;50.058;18.130;2022-09-09T04:45:07;99040.88;;;16.57;100.00
47815;BME280;33579;50.058;18.130;2022-09-09T04:46:09;99035.56;;;16.57;100.00
47815;BME280;33579;50.058;18.130;2022-09-09T04:47:11;99040.50;;;16.60;100.00
47815;BME280;33579;50.058;18.130;2022-09-09T04:48:13;99040.78;;;16.65;100.00
47815;BME280;33579;50.058;18.130;2022-09-09T04:49:15;99041.47;;;16.67;100.00
47815;BME280;33579;50.058;18.130;2022-09-09T04:50:17;99036.59;;;16.71;100.00
47815;BME280;33579;50.058;18.130;2022-09-09T04:51:20;99047.06;;;16.72;100.00
47815;BME280;33579;50.058;18.130;2022-09-09T04:52:23;99050.34;;;16.75;100.00
47815;BME280;33579;50.058;18.130;2022-09-09T04:53:25;99046.06;;;16.74;100.00
47815;BME280;33579;50.058;18.130;2022-09-09T04:54:27;99053.50;;;16.78;100.00
47815;BME280;33579;50.058;18.130;2022-09-09T04:55:29;99054.78;;;16.82;100.00
47815;BME280;33579;50.058;18.130;2022-09-09T04:56:31;99055.72;;;16.90;100.00
47815;BME280;33579;50.058;18.130;2022-09-09T04:57:34;99058.50;;;16.96;100.00
47815;BME280;33579;50.058;18.130;2022-09-09T04:58:37;99064.97;;;17.02;100.00
47815;BME280;33579;50.058;18.130;2022-09-09T04:59:39;99062.09;;;17.04;100.00
47815;BME280;33579;50.058;18.130;2022-09-09T05:00:41;99060.19;;;16.89;100.00
47815;BME280;33579;50.058;18.130;2022-09-09T05:01:42;99061.94;;;16.82;100.00
47815;BME280;33579;50.058;18.130;2022-09-09T05:02:45;99055.31;;;16.78;100.00
47815;BME280;33579;50.058;18.130;2022-09-09T05:03:47;99055.72;;;16.90;100.00
47815;BME280;33579;50.058;18.130;2022-09-09T05:04:52;99055.09;;;17.11;100.00
47815;BME280;33579;50.058;18.130;2022-09-09T05:05:53;99062.19;;;17.34;100.00
47815;BME280;33579;50.058;18.130;2022-09-09T05:06:55;99050.47;;;17.43;100.00
47815;BME280;33579;50.058;18.130;2022-09-09T05:08:05;99057.97;;;17.69;100.00
47815;BME280;33579;50.058;18.130;2022-09-09T05:09:07;99046.03;;;17.95;100.00
47815;BME280;33579;50.058;18.130;2022-09-09T05:10:08;99055.50;;;18.13;100.00
47815;BME280;33579;50.058;18.130;2022-09-09T05:11:21;99053.56;;;18.22;100.00
47815;BME280;33579;50.058;18.130;2022-09-09T05:12:25;99048.94;;;18.31;100.00
47815;BME280;33579;50.058;18.130;2022-09-09T05:13:26;99054.41;;;18.44;100.00
47815;BME280;33579;50.058;18.130;2022-09-09T05:14:28;99051.97;;;18.43;100.00
47815;BME280;33579;50.058;18.130;2022-09-09T05:15:30;99059.50;;;18.39;100.00
47815;BME280;33579;50.058;18.130;2022-09-09T05:16:32;99058.66;;;18.38;100.00
47815;BME280;33579;50.058;18.130;2022-09-09T05:17:34;99064.88;;;18.46;100.00
47815;BME280;33579;50.058;18.130;2022-09-09T05:18:35;99060.88;;;18.35;100.00
47815;BME280;33579;50.058;18.130;2022-09-09T05:19:37;99068.53;;;18.23;100.00
47815;BME280;33579;50.058;18.130;2022-09-09T05:20:38;99063.56;;;18.20;100.00
47815;BME280;33579;50.058;18.130;2022-09-09T05:21:40;99069.69;;;18.35;100.00
47815;BME280;33579;50.058;18.130;2022-09-09T05:22:42;99070.28;;;18.52;100.00
47815;BME280;33579;50.058;18.130;2022-09-09T05:23:45;99066.94;;;18.65;100.00
47815;BME280;33579;50.058;18.130;2022-09-09T05:24:47;99062.94;;;18.76;100.00
47815;BME280;33579;50.058;18.130;2022-09-09T05:25:56;99064.53;;;18.92;100.00
47815;BME280;33579;50.058;18.130;2022-09-09T05:26:57;99065.47;;;19.06;100.00
47815;BME280;33579;50.058;18.130;2022-09-09T05:27:59;99061.66;;;19.16;100.00
47815;BME280;33579;50.058;18.130;2022-09-09T05:29:01;99067.09;;;19.29;100.00
47815;BME280;33579;50.058;18.130;2022-09-09T05:30:05;99069.00;;;19.35;100.00
47815;BME280;33579;50.058;18.130;2022-09-09T05:31:09;99071.53;;;19.15;100.00
47815;BME280;33579;50.058;18.130;2022-09-09T05:32:12;99071.28;;;18.95;100.00
47815;BME280;33579;50.058;18.130;2022-09-09T05:33:17;99069.41;;;18.89;100.00
47815;BME280;33579;50.058;18.130;2022-09-09T05:34:19;99068.75;;;19.02;100.00
47815;BME280;33579;50.058;18.130;2022-09-09T05:35:20;99065.47;;;19.06;100.00
47815;BME280;33579;50.058;18.130;2022-09-09T05:36:22;99077.16;;;19.05;100.00
47815;BME280;33579;50.058;18.130;2022-09-09T05:37:28;99073.16;;;19.16;100.00
47815;BME280;33579;50.058;18.130;2022-09-09T05:38:32;99069.53;;;19.24;100.00
47815;BME280;33579;50.058;18.130;2022-09-09T05:39:34;99076.34;;;19.27;100.00
47815;BME280;33579;50.058;18.130;2022-09-09T05:40:36;99073.44;;;19.28;100.00
47815;BME280;33579;50.058;18.130;2022-09-09T05:41:38;99073.06;;;19.31;100.00
47815;BME280;33579;50.058;18.130;2022-09-09T05:42:40;99077.41;;;19.32;100.00
47815;BME280;33579;50.058;18.130;2022-09-09T05:43:43;99076.13;;;19.28;100.00
47815;BME280;33579;50.058;18.130;2022-09-09T05:44:46;99076.91;;;19.22;100.00
47815;BME280;33579;50.058;18.130;2022-09-09T05:45:47;99072.00;;;19.26;100.00
47815;BME280;33579;50.058;18.130;2022-09-09T05:46:49;99073.81;;;19.47;100.00
47815;BME280;33579;50.058;18.130;2022-09-09T05:47:52;99068.59;;;19.67;100.00
47815;BME280;33579;50.058;18.130;2022-09-09T05:48:53;99072.59;;;19.91;100.00
47815;BME280;33579;50.058;18.130;2022-09-09T05:50:01;99069.88;;;20.13;100.00
47815;BME280;33579;50.058;18.130;2022-09-09T05:51:03;99072.59;;;20.33;100.00
47815;BME280;33579;50.058;18.130;2022-09-09T05:52:05;99067.91;;;20.49;100.00
47815;BME280;33579;50.058;18.130;2022-09-09T05:53:07;99067.38;;;20.81;100.00
47815;BME280;33579;50.058;18.130;2022-09-09T05:54:08;99071.50;;;21.03;100.00
47815;BME280;33579;50.058;18.130;2022-09-09T05:55:14;99064.53;;;20.96;100.00
47815;BME280;33579;50.058;18.130;2022-09-09T05:56:18;99061.38;;;20.58;100.00
47815;BME280;33579;50.058;18.130;2022-09-09T05:57:20;99061.50;;;20.36;100.00
47815;BME280;33579;50.058;18.130;2022-09-09T05:58:22;99055.38;;;20.49;100.00
47815;BME280;33579;50.058;18.130;2022-09-09T05:59:23;99062.38;;;20.44;100.00
47815;BME280;33579;50.058;18.130;2022-09-09T06:00:27;99060.34;;;20.73;100.00
47815;BME280;33579;50.058;18.130;2022-09-09T06:01:31;99063.91;;;20.87;100.00
47815;BME280;33579;50.058;18.130;2022-09-09T06:02:35;99061.66;;;21.11;100.00